sensor_id;sensor_type;location;lat;lon;timestamp;P1;durP1;ratioP1;P2;durP2;ratioP2
16543;SDS011;8384;47.996;7.786;2022-11-15T00:00:23;4.27;;;3.00;;
16543;SDS011;8384;47.996;7.786;2022-11-15T00:02:48;3.30;;;2.80;;
16543;SDS011;8384;47.996;7.786;2022-11-15T00:05:13;3.73;;;3.13;;
16543;SDS011;8384;47.996;7.786;2022-11-15T00:07:39;4.73;;;3.50;;
16543;SDS011;8384;47.996;7.786;2022-11-15T00:10:04;5.03;;;3.40;;
16543;SDS011;8384;47.996;7.786;2022-11-15T00:12:30;4.77;;;3.60;;
16543;SDS011;8384;47.996;7.786;2022-11-15T00:14:55;2.90;;;2.60;;
16543;SDS011;8384;47.996;7.786;2022-11-15T00:17:20;3.87;;;2.60;;
16543;SDS011;8384;47.996;7.786;2022-11-15T00:19:46;4.60;;;3.23;;
16543;SDS011;8384;47.996;7.786;2022-11-15T00:22:11;4.30;;;2.80;;
16543;SDS011;8384;47.996;7.786;2022-11-15T00:24:36;3.40;;;2.90;;
16543;SDS011;8384;47.996;7.786;2022-11-15T00:27:01;4.43;;;2.73;;
16543;SDS011;8384;47.996;7.786;2022-11-15T00:29:27;3.97;;;2.60;;
16543;SDS011;8384;47.996;7.786;2022-11-15T00:31:52;3.50;;;2.77;;
16543;SDS011;8384;47.996;7.786;2022-11-15T00:34:18;3.03;;;2.80;;
16543;SDS011;8384;47.996;7.786;2022-11-15T00:36:43;3.60;;;2.87;;
16543;SDS011;8384;47.996;7.786;2022-11-15T00:39:08;4.17;;;2.80;;
16543;SDS011;8384;47.996;7.786;2022-11-15T00:41:34;3.43;;;2.70;;
16543;SDS011;8384;47.996;7.786;2022-11-15T00:43:59;4.10;;;2.60;;
16543;SDS011;8384;47.996;7.786;2022-11-15T00:46:24;3.80;;;2.67;;
16543;SDS011;8384;47.996;7.786;2022-11-15T00:48:50;2.80;;;2.40;;
16543;SDS011;8384;47.996;7.786;2022-11-15T00:51:15;2.83;;;2.57;;
16543;SDS011;8384;47.996;7.786;2022-11-15T00:53:40;3.87;;;2.80;;
16543;SDS011;8384;47.996;7.786;2022-11-15T00:56:06;2.87;;;2.27;;
16543;SDS011;8384;47.996;7.786;2022-11-15T00:58:31;2.87;;;2.30;;
16543;SDS011;8384;47.996;7.786;2022-11-15T01:01:04;2.90;;;2.63;;
16543;SDS011;8384;47.996;7.786;2022-11-15T01:03:32;2.57;;;2.37;;
16543;SDS011;8384;47.996;7.786;2022-11-15T01:06:01;2.70;;;2.50;;
16543;SDS011;8384;47.996;7.786;2022-11-15T01:08:27;3.97;;;2.60;;
16543;SDS011;8384;47.996;7.786;2022-11-15T01:10:52;2.97;;;2.37;;
16543;SDS011;8384;47.996;7.786;2022-11-15T01:13:17;4.13;;;2.87;;
16543;SDS011;8384;47.996;7.786;2022-11-15T01:15:42;3.00;;;2.67;;
16543;SDS011;8384;47.996;7.786;2022-11-15T01:18:08;3.13;;;2.60;;
16543;SDS011;8384;47.996;7.786;2022-11-15T01:20:34;4.10;;;2.87;;
16543;SDS011;8384;47.996;7.786;2022-11-15T01:23:03;3.50;;;2.90;;
16543;SDS011;8384;47.996;7.786;2022-11-15T01:25:28;3.40;;;2.70;;
16543;SDS011;8384;47.996;7.786;2022-11-15T01:27:54;4.40;;;3.40;;
16543;SDS011;8384;47.996;7.786;2022-11-15T01:30:19;4.10;;;3.00;;
16543;SDS011;8384;47.996;7.786;2022-11-15T01:32:44;3.93;;;3.27;;
16543;SDS011;8384;47.996;7.786;2022-11-15T01:35:09;3.27;;;2.53;;
16543;SDS011;8384;47.996;7.786;2022-11-15T01:37:35;3.30;;;3.00;;
16543;SDS011;8384;47.996;7.786;2022-11-15T01:40:00;5.77;;;2.90;;
16543;SDS011;8384;47.996;7.786;2022-11-15T01:42:25;3.73;;;2.70;;
16543;SDS011;8384;47.996;7.786;2022-11-15T01:44:51;3.07;;;2.83;;
16543;SDS011;8384;47.996;7.786;2022-11-15T01:47:22;2.97;;;2.63;;
16543;SDS011;8384;47.996;7.786;2022-11-15T01:50:16;2.50;;;2.27;;
16543;SDS011;8384;47.996;7.786;2022-11-15T01:52:44;3.77;;;2.70;;
16543;SDS011;8384;47.996;7.786;2022-11-15T01:57:50;5.10;;;2.60;;
16543;SDS011;8384;47.996;7.786;2022-11-15T02:00:18;3.33;;;2.53;;
16543;SDS011;8384;47.996;7.786;2022-11-15T02:02:44;6.00;;;3.30;;
16543;SDS011;8384;47.996;7.786;2022-11-15T02:05:09;4.70;;;3.50;;
16543;SDS011;8384;47.996;7.786;2022-11-15T02:07:35;4.90;;;4.07;;
16543;SDS011;8384;47.996;7.786;2022-11-15T02:10:08;5.67;;;3.60;;
16543;SDS011;8384;47.996;7.786;2022-11-15T02:12:35;4.90;;;3.90;;
16543;SDS011;8384;47.996;7.786;2022-11-15T02:15:01;5.30;;;4.20;;
16543;SDS011;8384;47.996;7.786;2022-11-15T02:17:37;3.73;;;3.43;;
16543;SDS011;8384;47.996;7.786;2022-11-15T02:26:10;4.30;;;3.30;;
16543;SDS011;8384;47.996;7.786;2022-11-15T02:28:59;4.03;;;3.30;;
16543;SDS011;8384;47.996;7.786;2022-11-15T02:37:01;2.60;;;2.27;;
16543;SDS011;8384;47.996;7.786;2022-11-15T02:39:43;3.10;;;2.70;;
16543;SDS011;8384;47.996;7.786;2022-11-15T02:42:21;2.93;;;2.43;;
16543;SDS011;8384;47.996;7.786;2022-11-15T02:45:11;2.57;;;2.37;;
16543;SDS011;8384;47.996;7.786;2022-11-15T02:47:43;3.03;;;2.43;;
16543;SDS011;8384;47.996;7.786;2022-11-15T02:50:11;2.60;;;2.40;;
16543;SDS011;8384;47.996;7.786;2022-11-15T02:52:40;2.90;;;2.33;;
16543;SDS011;8384;47.996;7.786;2022-11-15T03:03:38;4.57;;;2.63;;
16543;SDS011;8384;47.996;7.786;2022-11-15T03:06:33;3.10;;;2.50;;
16543;SDS011;8384;47.996;7.786;2022-11-15T03:09:07;3.63;;;2.90;;
16543;SDS011;8384;47.996;7.786;2022-11-15T03:11:41;3.10;;;2.80;;
16543;SDS011;8384;47.996;7.786;2022-11-15T03:14:17;2.60;;;2.40;;
16543;SDS011;8384;47.996;7.786;2022-11-15T03:17:05;4.27;;;2.87;;
16543;SDS011;8384;47.996;7.786;2022-11-15T03:19:52;3.23;;;2.60;;
16543;SDS011;8384;47.996;7.786;2022-11-15T03:22:20;4.63;;;3.30;;
16543;SDS011;8384;47.996;7.786;2022-11-15T03:24:50;5.10;;;3.77;;
16543;SDS011;8384;47.996;7.786;2022-11-15T03:27:20;4.30;;;3.80;;
16543;SDS011;8384;47.996;7.786;2022-11-15T03:29:51;4.20;;;3.73;;
16543;SDS011;8384;47.996;7.786;2022-11-15T03:32:23;7.30;;;5.53;;
16543;SDS011;8384;47.996;7.786;2022-11-15T03:35:11;15.47;;;9.47;;
16543;SDS011;8384;47.996;7.786;2022-11-15T03:37:48;8.77;;;6.20;;
16543;SDS011;8384;47.996;7.786;2022-11-15T03:40:20;5.40;;;4.03;;
16543;SDS011;8384;47.996;7.786;2022-11-15T03:43:01;5.40;;;4.37;;
16543;SDS011;8384;47.996;7.786;2022-11-15T03:45:31;6.67;;;4.57;;
16543;SDS011;8384;47.996;7.786;2022-11-15T03:48:03;5.97;;;3.33;;
16543;SDS011;8384;47.996;7.786;2022-11-15T03:50:34;3.43;;;3.13;;
16543;SDS011;8384;47.996;7.786;2022-11-15T03:53:00;3.77;;;3.20;;
16543;SDS011;8384;47.996;7.786;2022-11-15T03:55:25;5.37;;;3.30;;
16543;SDS011;8384;47.996;7.786;2022-11-15T03:57:51;4.67;;;4.00;;
16543;SDS011;8384;47.996;7.786;2022-11-15T04:00:21;7.17;;;5.13;;
16543;SDS011;8384;47.996;7.786;2022-11-15T04:02:47;13.13;;;9.73;;
16543;SDS011;8384;47.996;7.786;2022-11-15T04:05:12;18.37;;;12.67;;
16543;SDS011;8384;47.996;7.786;2022-11-15T04:07:37;6.73;;;4.73;;
16543;SDS011;8384;47.996;7.786;2022-11-15T04:10:03;10.07;;;6.97;;
16543;SDS011;8384;47.996;7.786;2022-11-15T04:12:29;10.93;;;8.10;;
16543;SDS011;8384;47.996;7.786;2022-11-15T04:17:47;6.70;;;5.30;;
16543;SDS011;8384;47.996;7.786;2022-11-15T04:20:16;4.30;;;3.90;;
16543;SDS011;8384;47.996;7.786;2022-11-15T04:23:05;4.37;;;3.97;;
16543;SDS011;8384;47.996;7.786;2022-11-15T04:25:51;5.20;;;4.33;;
16543;SDS011;8384;47.996;7.786;2022-11-15T04:28:17;5.10;;;3.30;;
16543;SDS011;8384;47.996;7.786;2022-11-15T04:30:43;3.73;;;3.30;;
16543;SDS011;8384;47.996;7.786;2022-11-15T04:33:08;3.37;;;3.07;;
16543;SDS011;8384;47.996;7.786;2022-11-15T04:35:34;5.90;;;3.43;;
16543;SDS011;8384;47.996;7.786;2022-11-15T04:37:59;3.70;;;3.07;;
16543;SDS011;8384;47.996;7.786;2022-11-15T04:40:26;3.57;;;2.90;;
16543;SDS011;8384;47.996;7.786;2022-11-15T04:42:51;3.30;;;2.80;;
16543;SDS011;8384;47.996;7.786;2022-11-15T04:45:16;3.60;;;3.27;;
16543;SDS011;8384;47.996;7.786;2022-11-15T04:47:45;3.57;;;3.07;;
16543;SDS011;8384;47.996;7.786;2022-11-15T04:50:12;4.63;;;2.97;;
16543;SDS011;8384;47.996;7.786;2022-11-15T04:52:39;4.47;;;3.07;;
16543;SDS011;8384;47.996;7.786;2022-11-15T04:55:12;4.40;;;3.07;;
16543;SDS011;8384;47.996;7.786;2022-11-15T04:57:38;3.63;;;2.80;;
16543;SDS011;8384;47.996;7.786;2022-11-15T05:00:08;3.37;;;3.07;;
16543;SDS011;8384;47.996;7.786;2022-11-15T05:02:35;3.20;;;2.73;;
16543;SDS011;8384;47.996;7.786;2022-11-15T05:05:19;4.80;;;3.00;;
16543;SDS011;8384;47.996;7.786;2022-11-15T05:07:45;3.20;;;2.90;;
16543;SDS011;8384;47.996;7.786;2022-11-15T05:10:10;4.03;;;3.40;;
16543;SDS011;8384;47.996;7.786;2022-11-15T05:12:35;5.07;;;3.60;;
16543;SDS011;8384;47.996;7.786;2022-11-15T05:15:01;5.17;;;3.90;;
16543;SDS011;8384;47.996;7.786;2022-11-15T05:17:26;3.50;;;3.20;;
16543;SDS011;8384;47.996;7.786;2022-11-15T05:19:51;3.33;;;3.03;;
16543;SDS011;8384;47.996;7.786;2022-11-15T05:22:17;4.03;;;3.00;;
16543;SDS011;8384;47.996;7.786;2022-11-15T05:24:43;4.20;;;3.10;;
16543;SDS011;8384;47.996;7.786;2022-11-15T05:27:08;3.87;;;3.20;;
16543;SDS011;8384;47.996;7.786;2022-11-15T05:29:34;3.13;;;2.90;;
16543;SDS011;8384;47.996;7.786;2022-11-15T05:31:59;3.83;;;3.30;;
16543;SDS011;8384;47.996;7.786;2022-11-15T05:34:24;3.40;;;2.93;;
16543;SDS011;8384;47.996;7.786;2022-11-15T05:36:51;3.27;;;2.97;;
16543;SDS011;8384;47.996;7.786;2022-11-15T05:39:17;4.23;;;3.40;;
16543;SDS011;8384;47.996;7.786;2022-11-15T05:41:44;3.70;;;3.40;;
16543;SDS011;8384;47.996;7.786;2022-11-15T05:44:16;4.07;;;3.40;;
16543;SDS011;8384;47.996;7.786;2022-11-15T05:46:44;3.97;;;3.43;;
16543;SDS011;8384;47.996;7.786;2022-11-15T05:49:11;4.77;;;3.00;;
16543;SDS011;8384;47.996;7.786;2022-11-15T05:51:40;3.67;;;3.33;;
16543;SDS011;8384;47.996;7.786;2022-11-15T05:54:08;5.00;;;3.33;;
16543;SDS011;8384;47.996;7.786;2022-11-15T05:56:33;3.47;;;3.13;;
16543;SDS011;8384;47.996;7.786;2022-11-15T05:58:59;3.30;;;3.00;;
16543;SDS011;8384;47.996;7.786;2022-11-15T06:01:24;3.57;;;3.27;;
16543;SDS011;8384;47.996;7.786;2022-11-15T06:03:51;4.23;;;3.50;;
16543;SDS011;8384;47.996;7.786;2022-11-15T06:06:16;4.17;;;3.30;;
16543;SDS011;8384;47.996;7.786;2022-11-15T06:08:41;4.47;;;3.37;;
16543;SDS011;8384;47.996;7.786;2022-11-15T06:11:07;3.73;;;3.13;;
16543;SDS011;8384;47.996;7.786;2022-11-15T06:13:32;4.70;;;3.90;;
16543;SDS011;8384;47.996;7.786;2022-11-15T06:15:58;5.17;;;4.00;;
16543;SDS011;8384;47.996;7.786;2022-11-15T06:18:24;5.27;;;4.77;;
16543;SDS011;8384;47.996;7.786;2022-11-15T06:20:50;6.77;;;6.07;;
16543;SDS011;8384;47.996;7.786;2022-11-15T06:23:15;5.73;;;5.00;;
16543;SDS011;8384;47.996;7.786;2022-11-15T06:25:41;6.10;;;5.50;;
16543;SDS011;8384;47.996;7.786;2022-11-15T06:28:06;8.30;;;6.23;;
16543;SDS011;8384;47.996;7.786;2022-11-15T06:30:31;5.47;;;4.57;;
16543;SDS011;8384;47.996;7.786;2022-11-15T06:33:00;6.47;;;4.67;;
16543;SDS011;8384;47.996;7.786;2022-11-15T06:35:29;7.17;;;4.50;;
16543;SDS011;8384;47.996;7.786;2022-11-15T06:37:56;4.80;;;4.30;;
16543;SDS011;8384;47.996;7.786;2022-11-15T06:40:26;6.10;;;4.30;;
16543;SDS011;8384;47.996;7.786;2022-11-15T06:42:56;6.57;;;4.00;;
16543;SDS011;8384;47.996;7.786;2022-11-15T06:45:22;5.53;;;3.90;;
16543;SDS011;8384;47.996;7.786;2022-11-15T06:47:47;4.67;;;3.93;;
16543;SDS011;8384;47.996;7.786;2022-11-15T06:50:13;7.70;;;3.67;;
16543;SDS011;8384;47.996;7.786;2022-11-15T06:52:38;4.63;;;3.97;;
16543;SDS011;8384;47.996;7.786;2022-11-15T06:55:04;6.97;;;3.90;;
16543;SDS011;8384;47.996;7.786;2022-11-15T06:57:29;6.17;;;4.00;;
16543;SDS011;8384;47.996;7.786;2022-11-15T06:59:55;5.03;;;3.33;;
16543;SDS011;8384;47.996;7.786;2022-11-15T07:02:21;4.80;;;3.73;;
16543;SDS011;8384;47.996;7.786;2022-11-15T07:04:46;5.67;;;4.00;;
16543;SDS011;8384;47.996;7.786;2022-11-15T07:07:11;6.83;;;3.93;;
16543;SDS011;8384;47.996;7.786;2022-11-15T07:09:37;4.17;;;3.40;;
16543;SDS011;8384;47.996;7.786;2022-11-15T07:12:02;4.17;;;3.10;;
16543;SDS011;8384;47.996;7.786;2022-11-15T07:14:27;5.77;;;3.00;;
16543;SDS011;8384;47.996;7.786;2022-11-15T07:16:53;4.37;;;3.20;;
16543;SDS011;8384;47.996;7.786;2022-11-15T07:19:18;4.30;;;3.30;;
16543;SDS011;8384;47.996;7.786;2022-11-15T07:21:43;5.07;;;3.57;;
16543;SDS011;8384;47.996;7.786;2022-11-15T07:24:08;5.43;;;3.70;;
16543;SDS011;8384;47.996;7.786;2022-11-15T07:26:34;4.57;;;3.30;;
16543;SDS011;8384;47.996;7.786;2022-11-15T07:28:59;7.90;;;4.17;;
16543;SDS011;8384;47.996;7.786;2022-11-15T07:31:24;9.47;;;4.77;;
16543;SDS011;8384;47.996;7.786;2022-11-15T07:33:50;6.40;;;4.00;;
16543;SDS011;8384;47.996;7.786;2022-11-15T07:36:15;5.00;;;3.43;;
16543;SDS011;8384;47.996;7.786;2022-11-15T07:38:41;4.90;;;3.40;;
16543;SDS011;8384;47.996;7.786;2022-11-15T07:41:07;3.53;;;3.20;;
16543;SDS011;8384;47.996;7.786;2022-11-15T07:43:32;10.80;;;5.70;;
16543;SDS011;8384;47.996;7.786;2022-11-15T07:45:58;8.57;;;5.60;;
16543;SDS011;8384;47.996;7.786;2022-11-15T07:48:28;6.13;;;4.50;;
16543;SDS011;8384;47.996;7.786;2022-11-15T07:50:54;7.10;;;4.70;;
16543;SDS011;8384;47.996;7.786;2022-11-15T07:53:19;6.00;;;4.63;;
16543;SDS011;8384;47.996;7.786;2022-11-15T07:55:44;9.80;;;4.80;;
16543;SDS011;8384;47.996;7.786;2022-11-15T07:58:10;4.93;;;4.37;;
16543;SDS011;8384;47.996;7.786;2022-11-15T08:00:36;4.80;;;4.13;;
16543;SDS011;8384;47.996;7.786;2022-11-15T08:05:32;6.93;;;3.90;;
16543;SDS011;8384;47.996;7.786;2022-11-15T08:07:57;6.53;;;3.83;;
16543;SDS011;8384;47.996;7.786;2022-11-15T08:10:23;4.87;;;4.37;;
16543;SDS011;8384;47.996;7.786;2022-11-15T08:12:54;7.13;;;4.33;;
16543;SDS011;8384;47.996;7.786;2022-11-15T08:15:21;5.47;;;3.90;;
16543;SDS011;8384;47.996;7.786;2022-11-15T08:17:47;7.57;;;4.43;;
16543;SDS011;8384;47.996;7.786;2022-11-15T08:20:12;4.73;;;4.27;;
16543;SDS011;8384;47.996;7.786;2022-11-15T08:22:37;5.53;;;3.77;;
16543;SDS011;8384;47.996;7.786;2022-11-15T08:25:02;7.07;;;3.97;;
16543;SDS011;8384;47.996;7.786;2022-11-15T08:27:28;6.07;;;3.90;;
16543;SDS011;8384;47.996;7.786;2022-11-15T08:29:53;4.70;;;3.30;;
16543;SDS011;8384;47.996;7.786;2022-11-15T08:32:18;6.00;;;3.37;;
16543;SDS011;8384;47.996;7.786;2022-11-15T08:34:44;5.17;;;3.00;;
16543;SDS011;8384;47.996;7.786;2022-11-15T08:37:09;3.60;;;3.03;;
16543;SDS011;8384;47.996;7.786;2022-11-15T08:39:34;3.97;;;3.00;;
16543;SDS011;8384;47.996;7.786;2022-11-15T08:41:59;4.50;;;3.07;;
16543;SDS011;8384;47.996;7.786;2022-11-15T08:44:25;3.50;;;3.20;;
16543;SDS011;8384;47.996;7.786;2022-11-15T08:46:50;4.27;;;3.40;;
16543;SDS011;8384;47.996;7.786;2022-11-15T08:49:16;3.40;;;3.10;;
16543;SDS011;8384;47.996;7.786;2022-11-15T08:51:41;5.87;;;3.17;;
16543;SDS011;8384;47.996;7.786;2022-11-15T08:54:07;3.50;;;3.10;;
16543;SDS011;8384;47.996;7.786;2022-11-15T08:56:32;5.63;;;3.43;;
16543;SDS011;8384;47.996;7.786;2022-11-15T08:58:58;3.83;;;3.50;;
16543;SDS011;8384;47.996;7.786;2022-11-15T09:01:23;3.90;;;3.33;;
16543;SDS011;8384;47.996;7.786;2022-11-15T09:03:48;3.77;;;3.40;;
16543;SDS011;8384;47.996;7.786;2022-11-15T09:06:13;7.87;;;4.10;;
16543;SDS011;8384;47.996;7.786;2022-11-15T09:08:39;5.87;;;3.53;;
16543;SDS011;8384;47.996;7.786;2022-11-15T09:11:06;5.20;;;4.37;;
16543;SDS011;8384;47.996;7.786;2022-11-15T09:13:32;6.37;;;3.83;;
16543;SDS011;8384;47.996;7.786;2022-11-15T09:15:59;4.37;;;3.97;;
16543;SDS011;8384;47.996;7.786;2022-11-15T09:18:25;4.73;;;3.80;;
16543;SDS011;8384;47.996;7.786;2022-11-15T09:20:50;3.60;;;3.30;;
16543;SDS011;8384;47.996;7.786;2022-11-15T09:23:15;4.10;;;3.33;;
16543;SDS011;8384;47.996;7.786;2022-11-15T09:25:41;3.60;;;3.30;;
16543;SDS011;8384;47.996;7.786;2022-11-15T09:28:07;4.67;;;3.87;;
16543;SDS011;8384;47.996;7.786;2022-11-15T09:30:33;4.57;;;3.90;;
16543;SDS011;8384;47.996;7.786;2022-11-15T09:32:58;4.57;;;3.77;;
16543;SDS011;8384;47.996;7.786;2022-11-15T09:35:23;11.50;;;4.10;;
16543;SDS011;8384;47.996;7.786;2022-11-15T09:37:49;8.73;;;4.23;;
16543;SDS011;8384;47.996;7.786;2022-11-15T09:40:14;5.00;;;3.40;;
16543;SDS011;8384;47.996;7.786;2022-11-15T09:42:48;6.40;;;3.90;;
16543;SDS011;8384;47.996;7.786;2022-11-15T09:51:00;5.67;;;4.10;;
16543;SDS011;8384;47.996;7.786;2022-11-15T09:53:38;6.03;;;4.60;;
16543;SDS011;8384;47.996;7.786;2022-11-15T09:56:14;4.57;;;4.03;;
16543;SDS011;8384;47.996;7.786;2022-11-15T09:58:48;4.07;;;3.50;;
16543;SDS011;8384;47.996;7.786;2022-11-15T10:01:48;5.07;;;4.57;;
16543;SDS011;8384;47.996;7.786;2022-11-15T10:04:25;4.83;;;4.10;;
16543;SDS011;8384;47.996;7.786;2022-11-15T10:06:58;6.40;;;4.47;;
16543;SDS011;8384;47.996;7.786;2022-11-15T10:09:41;6.87;;;4.17;;
16543;SDS011;8384;47.996;7.786;2022-11-15T10:12:12;4.63;;;4.23;;
16543;SDS011;8384;47.996;7.786;2022-11-15T10:14:38;6.33;;;4.83;;
16543;SDS011;8384;47.996;7.786;2022-11-15T10:19:57;6.00;;;4.53;;
16543;SDS011;8384;47.996;7.786;2022-11-15T10:27:28;4.60;;;4.20;;
16543;SDS011;8384;47.996;7.786;2022-11-15T10:29:54;4.93;;;4.50;;
16543;SDS011;8384;47.996;7.786;2022-11-15T10:32:20;13.67;;;5.40;;
16543;SDS011;8384;47.996;7.786;2022-11-15T10:34:47;5.97;;;5.17;;
16543;SDS011;8384;47.996;7.786;2022-11-15T10:37:13;7.03;;;5.20;;
16543;SDS011;8384;47.996;7.786;2022-11-15T10:39:38;6.30;;;4.83;;
16543;SDS011;8384;47.996;7.786;2022-11-15T10:42:25;5.73;;;5.10;;
16543;SDS011;8384;47.996;7.786;2022-11-15T10:44:53;5.90;;;5.17;;
16543;SDS011;8384;47.996;7.786;2022-11-15T10:47:29;5.83;;;5.00;;
16543;SDS011;8384;47.996;7.786;2022-11-15T10:50:04;6.17;;;5.40;;
16543;SDS011;8384;47.996;7.786;2022-11-15T10:52:56;6.17;;;4.80;;
16543;SDS011;8384;47.996;7.786;2022-11-15T10:55:27;5.23;;;4.70;;
16543;SDS011;8384;47.996;7.786;2022-11-15T10:57:56;6.87;;;5.03;;
16543;SDS011;8384;47.996;7.786;2022-11-15T11:00:32;5.47;;;4.97;;
16543;SDS011;8384;47.996;7.786;2022-11-15T11:03:01;7.17;;;5.07;;
16543;SDS011;8384;47.996;7.786;2022-11-15T11:05:38;5.93;;;5.07;;
16543;SDS011;8384;47.996;7.786;2022-11-15T11:10:55;6.00;;;5.40;;
16543;SDS011;8384;47.996;7.786;2022-11-15T11:13:29;6.50;;;5.57;;
16543;SDS011;8384;47.996;7.786;2022-11-15T11:16:17;5.97;;;5.43;;
16543;SDS011;8384;47.996;7.786;2022-11-15T11:18:49;5.93;;;5.33;;
16543;SDS011;8384;47.996;7.786;2022-11-15T11:21:40;5.80;;;5.30;;
16543;SDS011;8384;47.996;7.786;2022-11-15T11:24:17;6.43;;;5.73;;
16543;SDS011;8384;47.996;7.786;2022-11-15T11:32:29;7.77;;;4.97;;
16543;SDS011;8384;47.996;7.786;2022-11-15T11:34:59;5.10;;;4.60;;
16543;SDS011;8384;47.996;7.786;2022-11-15T11:37:51;5.43;;;4.93;;
16543;SDS011;8384;47.996;7.786;2022-11-15T11:40:32;5.80;;;4.97;;
16543;SDS011;8384;47.996;7.786;2022-11-15T11:43:10;7.67;;;5.43;;
16543;SDS011;8384;47.996;7.786;2022-11-15T11:49:01;6.90;;;5.87;;
16543;SDS011;8384;47.996;7.786;2022-11-15T11:51:34;6.10;;;5.50;;
16543;SDS011;8384;47.996;7.786;2022-11-15T11:54:11;6.47;;;5.80;;
16543;SDS011;8384;47.996;7.786;2022-11-15T11:56:44;6.93;;;6.27;;
16543;SDS011;8384;47.996;7.786;2022-11-15T12:01:46;6.77;;;5.60;;
16543;SDS011;8384;47.996;7.786;2022-11-15T12:04:16;5.93;;;5.33;;
16543;SDS011;8384;47.996;7.786;2022-11-15T12:09:30;9.60;;;5.70;;
16543;SDS011;8384;47.996;7.786;2022-11-15T12:12:19;6.40;;;5.43;;
16543;SDS011;8384;47.996;7.786;2022-11-15T12:14:57;7.73;;;6.00;;
16543;SDS011;8384;47.996;7.786;2022-11-15T12:17:28;6.57;;;5.77;;
16543;SDS011;8384;47.996;7.786;2022-11-15T12:19:58;7.60;;;5.90;;
16543;SDS011;8384;47.996;7.786;2022-11-15T12:22:38;6.30;;;5.70;;
16543;SDS011;8384;47.996;7.786;2022-11-15T12:25:13;6.77;;;6.00;;
16543;SDS011;8384;47.996;7.786;2022-11-15T12:30:45;6.90;;;5.97;;
16543;SDS011;8384;47.996;7.786;2022-11-15T12:33:35;6.17;;;5.43;;
16543;SDS011;8384;47.996;7.786;2022-11-15T12:36:03;6.60;;;6.00;;
16543;SDS011;8384;47.996;7.786;2022-11-15T12:38:52;6.70;;;5.70;;
16543;SDS011;8384;47.996;7.786;2022-11-15T12:41:29;8.10;;;6.23;;
16543;SDS011;8384;47.996;7.786;2022-11-15T12:43:56;6.53;;;5.40;;
16543;SDS011;8384;47.996;7.786;2022-11-15T12:48:56;6.03;;;5.47;;
16543;SDS011;8384;47.996;7.786;2022-11-15T13:02:39;4.73;;;4.23;;
16543;SDS011;8384;47.996;7.786;2022-11-15T13:22:45;6.90;;;5.00;;
16543;SDS011;8384;47.996;7.786;2022-11-15T13:30:52;5.43;;;4.80;;
16543;SDS011;8384;47.996;7.786;2022-11-15T13:35:59;5.40;;;4.57;;
16543;SDS011;8384;47.996;7.786;2022-11-15T13:38:31;6.20;;;5.60;;
16543;SDS011;8384;47.996;7.786;2022-11-15T13:40:58;6.20;;;5.47;;
16543;SDS011;8384;47.996;7.786;2022-11-15T13:43:35;6.17;;;5.57;;
16543;SDS011;8384;47.996;7.786;2022-11-15T13:48:35;6.93;;;4.87;;
16543;SDS011;8384;47.996;7.786;2022-11-15T13:51:01;5.13;;;4.43;;
16543;SDS011;8384;47.996;7.786;2022-11-15T13:53:30;5.10;;;4.30;;
16543;SDS011;8384;47.996;7.786;2022-11-15T13:55:57;4.50;;;4.07;;
16543;SDS011;8384;47.996;7.786;2022-11-15T13:58:23;4.97;;;4.47;;
16543;SDS011;8384;47.996;7.786;2022-11-15T14:00:49;5.63;;;5.07;;
16543;SDS011;8384;47.996;7.786;2022-11-15T14:03:27;4.97;;;4.47;;
16543;SDS011;8384;47.996;7.786;2022-11-15T14:06:02;5.40;;;4.50;;
16543;SDS011;8384;47.996;7.786;2022-11-15T14:08:28;5.67;;;4.30;;
16543;SDS011;8384;47.996;7.786;2022-11-15T14:11:07;5.07;;;3.97;;
16543;SDS011;8384;47.996;7.786;2022-11-15T14:16:36;4.37;;;3.93;;
16543;SDS011;8384;47.996;7.786;2022-11-15T14:19:02;5.50;;;4.07;;
16543;SDS011;8384;47.996;7.786;2022-11-15T14:21:29;4.93;;;3.90;;
16543;SDS011;8384;47.996;7.786;2022-11-15T14:26:40;5.17;;;4.07;;
16543;SDS011;8384;47.996;7.786;2022-11-15T14:31:51;5.73;;;4.60;;
16543;SDS011;8384;47.996;7.786;2022-11-15T14:34:17;6.27;;;4.40;;
16543;SDS011;8384;47.996;7.786;2022-11-15T14:36:42;4.70;;;4.30;;
16543;SDS011;8384;47.996;7.786;2022-11-15T14:39:07;4.73;;;4.23;;
16543;SDS011;8384;47.996;7.786;2022-11-15T14:41:36;4.73;;;4.00;;
16543;SDS011;8384;47.996;7.786;2022-11-15T14:44:03;5.27;;;4.47;;
16543;SDS011;8384;47.996;7.786;2022-11-15T14:46:29;7.10;;;5.43;;
16543;SDS011;8384;47.996;7.786;2022-11-15T14:48:55;5.60;;;4.90;;
16543;SDS011;8384;47.996;7.786;2022-11-15T14:51:20;7.90;;;5.13;;
16543;SDS011;8384;47.996;7.786;2022-11-15T14:53:46;6.27;;;4.73;;
16543;SDS011;8384;47.996;7.786;2022-11-15T14:56:12;7.23;;;4.87;;
16543;SDS011;8384;47.996;7.786;2022-11-15T14:58:38;6.50;;;4.83;;
16543;SDS011;8384;47.996;7.786;2022-11-15T15:03:51;5.93;;;5.03;;
16543;SDS011;8384;47.996;7.786;2022-11-15T15:06:17;6.93;;;6.30;;
16543;SDS011;8384;47.996;7.786;2022-11-15T15:08:43;11.37;;;9.63;;
16543;SDS011;8384;47.996;7.786;2022-11-15T15:11:10;10.90;;;9.70;;
16543;SDS011;8384;47.996;7.786;2022-11-15T15:13:39;9.50;;;8.60;;
16543;SDS011;8384;47.996;7.786;2022-11-15T15:16:05;7.47;;;6.53;;
16543;SDS011;8384;47.996;7.786;2022-11-15T15:18:30;7.20;;;6.50;;
16543;SDS011;8384;47.996;7.786;2022-11-15T15:20:56;6.73;;;6.10;;
16543;SDS011;8384;47.996;7.786;2022-11-15T15:23:31;8.07;;;6.53;;
16543;SDS011;8384;47.996;7.786;2022-11-15T15:25:57;7.10;;;6.03;;
16543;SDS011;8384;47.996;7.786;2022-11-15T15:28:23;7.43;;;6.33;;
16543;SDS011;8384;47.996;7.786;2022-11-15T15:30:48;6.07;;;5.47;;
16543;SDS011;8384;47.996;7.786;2022-11-15T15:33:14;5.73;;;5.03;;
16543;SDS011;8384;47.996;7.786;2022-11-15T15:35:40;7.07;;;5.03;;
16543;SDS011;8384;47.996;7.786;2022-11-15T15:38:05;6.90;;;4.60;;
16543;SDS011;8384;47.996;7.786;2022-11-15T15:40:31;6.63;;;4.87;;
16543;SDS011;8384;47.996;7.786;2022-11-15T15:42:57;6.27;;;4.80;;
16543;SDS011;8384;47.996;7.786;2022-11-15T15:45:24;7.77;;;4.70;;
16543;SDS011;8384;47.996;7.786;2022-11-15T15:47:50;8.17;;;4.90;;
16543;SDS011;8384;47.996;7.786;2022-11-15T15:50:19;5.83;;;5.20;;
16543;SDS011;8384;47.996;7.786;2022-11-15T15:52:49;6.43;;;5.00;;
16543;SDS011;8384;47.996;7.786;2022-11-15T15:55:15;9.37;;;6.90;;
16543;SDS011;8384;47.996;7.786;2022-11-15T15:57:40;10.00;;;7.33;;
16543;SDS011;8384;47.996;7.786;2022-11-15T16:00:06;7.43;;;6.63;;
16543;SDS011;8384;47.996;7.786;2022-11-15T16:02:31;9.70;;;7.47;;
16543;SDS011;8384;47.996;7.786;2022-11-15T16:04:57;9.30;;;6.97;;
16543;SDS011;8384;47.996;7.786;2022-11-15T16:07:22;10.77;;;7.80;;
16543;SDS011;8384;47.996;7.786;2022-11-15T16:09:50;10.83;;;6.10;;
16543;SDS011;8384;47.996;7.786;2022-11-15T16:12:26;6.73;;;6.03;;
16543;SDS011;8384;47.996;7.786;2022-11-15T16:15:00;7.03;;;5.90;;
16543;SDS011;8384;47.996;7.786;2022-11-15T16:17:34;8.50;;;5.80;;
16543;SDS011;8384;47.996;7.786;2022-11-15T16:20:02;9.23;;;8.33;;
16543;SDS011;8384;47.996;7.786;2022-11-15T16:22:28;5.97;;;5.37;;
16543;SDS011;8384;47.996;7.786;2022-11-15T16:24:54;7.23;;;4.93;;
16543;SDS011;8384;47.996;7.786;2022-11-15T16:27:19;5.97;;;5.13;;
16543;SDS011;8384;47.996;7.786;2022-11-15T16:29:46;6.27;;;5.23;;
16543;SDS011;8384;47.996;7.786;2022-11-15T16:32:12;6.40;;;5.80;;
16543;SDS011;8384;47.996;7.786;2022-11-15T16:34:37;6.43;;;4.93;;
16543;SDS011;8384;47.996;7.786;2022-11-15T16:37:02;7.33;;;5.23;;
16543;SDS011;8384;47.996;7.786;2022-11-15T16:39:28;7.53;;;5.10;;
16543;SDS011;8384;47.996;7.786;2022-11-15T16:41:55;6.93;;;5.47;;
16543;SDS011;8384;47.996;7.786;2022-11-15T16:44:21;7.73;;;5.23;;
16543;SDS011;8384;47.996;7.786;2022-11-15T16:46:48;7.97;;;5.17;;
16543;SDS011;8384;47.996;7.786;2022-11-15T16:49:15;8.27;;;5.57;;
16543;SDS011;8384;47.996;7.786;2022-11-15T16:51:42;6.83;;;5.07;;
16543;SDS011;8384;47.996;7.786;2022-11-15T16:54:10;6.63;;;4.70;;
16543;SDS011;8384;47.996;7.786;2022-11-15T16:56:37;5.33;;;4.60;;
16543;SDS011;8384;47.996;7.786;2022-11-15T16:59:03;5.83;;;4.97;;
16543;SDS011;8384;47.996;7.786;2022-11-15T17:01:30;6.23;;;5.33;;
16543;SDS011;8384;47.996;7.786;2022-11-15T17:03:57;5.67;;;4.87;;